sensor_id;sensor_type;location;lat;lon;timestamp;P1;durP1;ratioP1;P2;durP2;ratioP2
6755;SDS011;3415;51.148;7.014;2023-04-16T00:01:15;47.17;;;18.60;;
6755;SDS011;3415;51.148;7.014;2023-04-16T00:03:41;46.10;;;18.20;;
6755;SDS011;3415;51.148;7.014;2023-04-16T00:06:09;44.80;;;17.27;;
6755;SDS011;3415;51.148;7.014;2023-04-16T00:08:36;42.30;;;17.93;;
6755;SDS011;3415;51.148;7.014;2023-04-16T00:11:06;51.17;;;21.33;;
6755;SDS011;3415;51.148;7.014;2023-04-16T00:13:33;49.13;;;18.70;;
6755;SDS011;3415;51.148;7.014;2023-04-16T00:16:00;49.67;;;19.50;;
6755;SDS011;3415;51.148;7.014;2023-04-16T00:18:26;57.57;;;20.57;;
6755;SDS011;3415;51.148;7.014;2023-04-16T00:20:53;48.83;;;19.87;;
6755;SDS011;3415;51.148;7.014;2023-04-16T00:23:20;52.37;;;20.70;;
6755;SDS011;3415;51.148;7.014;2023-04-16T00:25:49;39.13;;;18.60;;
6755;SDS011;3415;51.148;7.014;2023-04-16T00:28:17;58.47;;;19.43;;
6755;SDS011;3415;51.148;7.014;2023-04-16T00:30:44;51.80;;;20.93;;
6755;SDS011;3415;51.148;7.014;2023-04-16T00:33:11;59.77;;;24.10;;
6755;SDS011;3415;51.148;7.014;2023-04-16T00:35:37;50.90;;;20.50;;
6755;SDS011;3415;51.148;7.014;2023-04-16T00:38:04;46.23;;;21.30;;
6755;SDS011;3415;51.148;7.014;2023-04-16T00:40:31;54.10;;;22.90;;
6755;SDS011;3415;51.148;7.014;2023-04-16T00:42:58;66.37;;;21.90;;
6755;SDS011;3415;51.148;7.014;2023-04-16T00:45:26;44.20;;;20.73;;
6755;SDS011;3415;51.148;7.014;2023-04-16T00:47:53;61.20;;;22.47;;
6755;SDS011;3415;51.148;7.014;2023-04-16T00:50:20;51.97;;;21.60;;
6755;SDS011;3415;51.148;7.014;2023-04-16T00:52:48;51.43;;;22.07;;
6755;SDS011;3415;51.148;7.014;2023-04-16T00:55:15;55.77;;;21.63;;
6755;SDS011;3415;51.148;7.014;2023-04-16T00:57:43;50.43;;;19.57;;
6755;SDS011;3415;51.148;7.014;2023-04-16T01:00:10;45.93;;;18.83;;
6755;SDS011;3415;51.148;7.014;2023-04-16T01:02:39;39.43;;;16.63;;
6755;SDS011;3415;51.148;7.014;2023-04-16T01:05:06;45.33;;;15.60;;
6755;SDS011;3415;51.148;7.014;2023-04-16T01:07:34;44.03;;;16.47;;
6755;SDS011;3415;51.148;7.014;2023-04-16T01:10:01;39.47;;;17.10;;
6755;SDS011;3415;51.148;7.014;2023-04-16T01:12:28;44.60;;;17.07;;
6755;SDS011;3415;51.148;7.014;2023-04-16T01:14:55;38.60;;;14.67;;
6755;SDS011;3415;51.148;7.014;2023-04-16T01:17:22;37.23;;;16.20;;
6755;SDS011;3415;51.148;7.014;2023-04-16T01:19:50;36.67;;;15.50;;
6755;SDS011;3415;51.148;7.014;2023-04-16T01:22:18;34.90;;;14.70;;
6755;SDS011;3415;51.148;7.014;2023-04-16T01:24:45;29.57;;;13.80;;
6755;SDS011;3415;51.148;7.014;2023-04-16T01:27:12;33.50;;;13.23;;
6755;SDS011;3415;51.148;7.014;2023-04-16T01:29:38;28.17;;;13.30;;
6755;SDS011;3415;51.148;7.014;2023-04-16T01:32:05;31.40;;;14.17;;
6755;SDS011;3415;51.148;7.014;2023-04-16T01:34:32;27.30;;;12.80;;
6755;SDS011;3415;51.148;7.014;2023-04-16T01:36:59;28.93;;;11.80;;
6755;SDS011;3415;51.148;7.014;2023-04-16T01:39:28;31.63;;;12.27;;
6755;SDS011;3415;51.148;7.014;2023-04-16T01:41:54;27.57;;;12.43;;
6755;SDS011;3415;51.148;7.014;2023-04-16T01:44:21;24.37;;;11.40;;
6755;SDS011;3415;51.148;7.014;2023-04-16T01:46:49;24.33;;;10.40;;
6755;SDS011;3415;51.148;7.014;2023-04-16T01:49:16;25.80;;;12.30;;
6755;SDS011;3415;51.148;7.014;2023-04-16T01:51:43;23.87;;;11.03;;
6755;SDS011;3415;51.148;7.014;2023-04-16T01:54:10;23.63;;;11.40;;
6755;SDS011;3415;51.148;7.014;2023-04-16T01:56:38;27.67;;;11.90;;
6755;SDS011;3415;51.148;7.014;2023-04-16T01:59:05;20.07;;;10.90;;
6755;SDS011;3415;51.148;7.014;2023-04-16T02:01:32;35.93;;;12.77;;
6755;SDS011;3415;51.148;7.014;2023-04-16T02:03:59;24.17;;;11.20;;
6755;SDS011;3415;51.148;7.014;2023-04-16T02:06:25;27.67;;;12.53;;
6755;SDS011;3415;51.148;7.014;2023-04-16T02:08:52;29.53;;;12.60;;
6755;SDS011;3415;51.148;7.014;2023-04-16T02:11:19;31.43;;;11.93;;
6755;SDS011;3415;51.148;7.014;2023-04-16T02:13:48;28.10;;;12.37;;
6755;SDS011;3415;51.148;7.014;2023-04-16T02:16:14;30.10;;;13.57;;
6755;SDS011;3415;51.148;7.014;2023-04-16T02:18:41;29.83;;;13.87;;
6755;SDS011;3415;51.148;7.014;2023-04-16T02:21:08;40.73;;;14.80;;
6755;SDS011;3415;51.148;7.014;2023-04-16T02:23:35;29.20;;;13.27;;
6755;SDS011;3415;51.148;7.014;2023-04-16T02:26:05;32.70;;;15.20;;
6755;SDS011;3415;51.148;7.014;2023-04-16T02:28:31;38.73;;;16.00;;
6755;SDS011;3415;51.148;7.014;2023-04-16T02:31:00;58.50;;;18.20;;
6755;SDS011;3415;51.148;7.014;2023-04-16T02:33:26;45.37;;;18.07;;
6755;SDS011;3415;51.148;7.014;2023-04-16T02:35:54;50.67;;;20.57;;
6755;SDS011;3415;51.148;7.014;2023-04-16T02:38:20;56.97;;;20.13;;
6755;SDS011;3415;51.148;7.014;2023-04-16T02:40:47;43.30;;;19.90;;
6755;SDS011;3415;51.148;7.014;2023-04-16T02:43:14;56.00;;;21.50;;
6755;SDS011;3415;51.148;7.014;2023-04-16T02:45:41;49.73;;;22.43;;
6755;SDS011;3415;51.148;7.014;2023-04-16T02:48:10;59.10;;;21.80;;
6755;SDS011;3415;51.148;7.014;2023-04-16T02:50:37;60.50;;;21.20;;
6755;SDS011;3415;51.148;7.014;2023-04-16T02:53:04;67.43;;;22.33;;
6755;SDS011;3415;51.148;7.014;2023-04-16T02:55:31;61.47;;;22.20;;
6755;SDS011;3415;51.148;7.014;2023-04-16T02:57:58;55.60;;;20.60;;
6755;SDS011;3415;51.148;7.014;2023-04-16T03:00:25;58.00;;;21.60;;
6755;SDS011;3415;51.148;7.014;2023-04-16T03:02:52;47.20;;;19.93;;
6755;SDS011;3415;51.148;7.014;2023-04-16T03:05:21;43.60;;;18.70;;
6755;SDS011;3415;51.148;7.014;2023-04-16T03:07:47;47.57;;;19.43;;
6755;SDS011;3415;51.148;7.014;2023-04-16T03:10:20;53.27;;;18.17;;
6755;SDS011;3415;51.148;7.014;2023-04-16T03:12:47;50.70;;;20.80;;
6755;SDS011;3415;51.148;7.014;2023-04-16T03:15:14;50.80;;;21.20;;
6755;SDS011;3415;51.148;7.014;2023-04-16T03:17:41;53.93;;;19.70;;
6755;SDS011;3415;51.148;7.014;2023-04-16T03:20:08;51.50;;;19.03;;
6755;SDS011;3415;51.148;7.014;2023-04-16T03:22:36;51.10;;;18.97;;
6755;SDS011;3415;51.148;7.014;2023-04-16T03:25:03;47.53;;;19.63;;
6755;SDS011;3415;51.148;7.014;2023-04-16T03:27:31;49.83;;;17.47;;
6755;SDS011;3415;51.148;7.014;2023-04-16T03:29:58;45.53;;;17.00;;
6755;SDS011;3415;51.148;7.014;2023-04-16T03:32:25;55.83;;;17.50;;
6755;SDS011;3415;51.148;7.014;2023-04-16T03:34:51;40.73;;;15.73;;
6755;SDS011;3415;51.148;7.014;2023-04-16T03:37:18;30.93;;;14.70;;
6755;SDS011;3415;51.148;7.014;2023-04-16T03:39:46;40.27;;;15.37;;
6755;SDS011;3415;51.148;7.014;2023-04-16T03:42:13;40.90;;;15.90;;
6755;SDS011;3415;51.148;7.014;2023-04-16T03:44:40;37.40;;;15.80;;
6755;SDS011;3415;51.148;7.014;2023-04-16T03:47:07;38.37;;;13.67;;
6755;SDS011;3415;51.148;7.014;2023-04-16T03:49:34;46.43;;;13.80;;
6755;SDS011;3415;51.148;7.014;2023-04-16T03:52:00;36.87;;;14.20;;
6755;SDS011;3415;51.148;7.014;2023-04-16T03:54:27;32.97;;;13.63;;
6755;SDS011;3415;51.148;7.014;2023-04-16T03:56:56;38.30;;;13.20;;
6755;SDS011;3415;51.148;7.014;2023-04-16T03:59:23;33.47;;;13.67;;
6755;SDS011;3415;51.148;7.014;2023-04-16T04:01:49;31.67;;;13.27;;
6755;SDS011;3415;51.148;7.014;2023-04-16T04:04:16;30.67;;;12.40;;
6755;SDS011;3415;51.148;7.014;2023-04-16T04:06:43;36.10;;;14.60;;
6755;SDS011;3415;51.148;7.014;2023-04-16T04:09:11;34.10;;;12.80;;
6755;SDS011;3415;51.148;7.014;2023-04-16T04:11:38;27.57;;;11.47;;
6755;SDS011;3415;51.148;7.014;2023-04-16T04:14:06;27.17;;;13.17;;
6755;SDS011;3415;51.148;7.014;2023-04-16T04:16:33;29.40;;;13.00;;
6755;SDS011;3415;51.148;7.014;2023-04-16T04:19:00;34.03;;;12.60;;
6755;SDS011;3415;51.148;7.014;2023-04-16T04:21:27;36.53;;;12.70;;
6755;SDS011;3415;51.148;7.014;2023-04-16T04:23:55;30.40;;;12.63;;
6755;SDS011;3415;51.148;7.014;2023-04-16T04:26:22;27.23;;;12.57;;
6755;SDS011;3415;51.148;7.014;2023-04-16T04:28:49;34.60;;;12.47;;
6755;SDS011;3415;51.148;7.014;2023-04-16T04:31:17;32.07;;;13.27;;
6755;SDS011;3415;51.148;7.014;2023-04-16T04:33:44;38.30;;;12.93;;
6755;SDS011;3415;51.148;7.014;2023-04-16T04:36:11;27.00;;;11.33;;
6755;SDS011;3415;51.148;7.014;2023-04-16T04:38:38;32.80;;;12.60;;
6755;SDS011;3415;51.148;7.014;2023-04-16T04:41:04;46.47;;;15.03;;
6755;SDS011;3415;51.148;7.014;2023-04-16T04:43:31;32.60;;;11.93;;
6755;SDS011;3415;51.148;7.014;2023-04-16T04:45:58;26.60;;;12.23;;
6755;SDS011;3415;51.148;7.014;2023-04-16T04:48:26;25.40;;;12.13;;
6755;SDS011;3415;51.148;7.014;2023-04-16T04:50:53;29.13;;;13.30;;
6755;SDS011;3415;51.148;7.014;2023-04-16T04:53:20;26.00;;;11.50;;
6755;SDS011;3415;51.148;7.014;2023-04-16T04:55:47;30.07;;;12.57;;
6755;SDS011;3415;51.148;7.014;2023-04-16T04:58:14;35.20;;;14.90;;
6755;SDS011;3415;51.148;7.014;2023-04-16T05:00:40;34.07;;;14.27;;
6755;SDS011;3415;51.148;7.014;2023-04-16T05:03:09;28.73;;;13.33;;
6755;SDS011;3415;51.148;7.014;2023-04-16T05:05:38;26.20;;;12.70;;
6755;SDS011;3415;51.148;7.014;2023-04-16T05:08:06;24.77;;;12.57;;
6755;SDS011;3415;51.148;7.014;2023-04-16T05:10:32;36.00;;;13.57;;
6755;SDS011;3415;51.148;7.014;2023-04-16T05:12:59;32.67;;;12.37;;
6755;SDS011;3415;51.148;7.014;2023-04-16T05:15:26;28.60;;;12.40;;
6755;SDS011;3415;51.148;7.014;2023-04-16T05:17:53;29.67;;;12.60;;
6755;SDS011;3415;51.148;7.014;2023-04-16T05:20:21;36.70;;;13.13;;
6755;SDS011;3415;51.148;7.014;2023-04-16T05:22:49;28.40;;;13.50;;
6755;SDS011;3415;51.148;7.014;2023-04-16T05:25:16;41.40;;;13.70;;
6755;SDS011;3415;51.148;7.014;2023-04-16T05:27:43;27.10;;;11.77;;
6755;SDS011;3415;51.148;7.014;2023-04-16T05:30:10;36.07;;;13.70;;
6755;SDS011;3415;51.148;7.014;2023-04-16T05:32:38;28.83;;;12.03;;
6755;SDS011;3415;51.148;7.014;2023-04-16T05:35:05;36.33;;;12.27;;
6755;SDS011;3415;51.148;7.014;2023-04-16T05:37:32;34.73;;;15.07;;
6755;SDS011;3415;51.148;7.014;2023-04-16T05:40:00;40.13;;;13.40;;
6755;SDS011;3415;51.148;7.014;2023-04-16T05:42:27;38.70;;;13.23;;
6755;SDS011;3415;51.148;7.014;2023-04-16T05:44:54;33.33;;;15.43;;
6755;SDS011;3415;51.148;7.014;2023-04-16T05:47:21;36.40;;;12.87;;
6755;SDS011;3415;51.148;7.014;2023-04-16T05:49:47;32.67;;;13.00;;
6755;SDS011;3415;51.148;7.014;2023-04-16T05:52:14;33.73;;;14.50;;
6755;SDS011;3415;51.148;7.014;2023-04-16T05:54:41;36.00;;;14.20;;
6755;SDS011;3415;51.148;7.014;2023-04-16T05:57:09;34.80;;;15.13;;
6755;SDS011;3415;51.148;7.014;2023-04-16T05:59:36;36.67;;;13.40;;
6755;SDS011;3415;51.148;7.014;2023-04-16T06:02:03;36.30;;;16.23;;
6755;SDS011;3415;51.148;7.014;2023-04-16T06:04:30;45.70;;;14.90;;
6755;SDS011;3415;51.148;7.014;2023-04-16T06:06:57;41.00;;;16.97;;
6755;SDS011;3415;51.148;7.014;2023-04-16T06:09:24;42.03;;;14.90;;
6755;SDS011;3415;51.148;7.014;2023-04-16T06:11:50;47.50;;;15.70;;
6755;SDS011;3415;51.148;7.014;2023-04-16T06:14:19;37.60;;;15.13;;
6755;SDS011;3415;51.148;7.014;2023-04-16T06:16:45;41.73;;;16.30;;
6755;SDS011;3415;51.148;7.014;2023-04-16T06:19:12;47.40;;;16.43;;
6755;SDS011;3415;51.148;7.014;2023-04-16T06:21:39;35.50;;;16.47;;
6755;SDS011;3415;51.148;7.014;2023-04-16T06:24:06;42.10;;;16.83;;
6755;SDS011;3415;51.148;7.014;2023-04-16T06:26:33;38.27;;;15.73;;
6755;SDS011;3415;51.148;7.014;2023-04-16T06:29:00;46.63;;;16.93;;
6755;SDS011;3415;51.148;7.014;2023-04-16T06:31:28;40.80;;;15.40;;
6755;SDS011;3415;51.148;7.014;2023-04-16T06:33:55;34.13;;;14.83;;
6755;SDS011;3415;51.148;7.014;2023-04-16T06:36:22;35.47;;;16.20;;
6755;SDS011;3415;51.148;7.014;2023-04-16T06:38:49;41.40;;;15.20;;
6755;SDS011;3415;51.148;7.014;2023-04-16T06:41:15;41.07;;;15.90;;
6755;SDS011;3415;51.148;7.014;2023-04-16T06:43:42;41.13;;;16.13;;
6755;SDS011;3415;51.148;7.014;2023-04-16T06:46:10;45.87;;;16.83;;
6755;SDS011;3415;51.148;7.014;2023-04-16T06:48:38;32.17;;;15.30;;
6755;SDS011;3415;51.148;7.014;2023-04-16T06:51:05;39.43;;;16.07;;
6755;SDS011;3415;51.148;7.014;2023-04-16T06:53:31;38.20;;;16.00;;
6755;SDS011;3415;51.148;7.014;2023-04-16T06:55:58;34.30;;;15.47;;
6755;SDS011;3415;51.148;7.014;2023-04-16T06:58:25;37.50;;;14.67;;
6755;SDS011;3415;51.148;7.014;2023-04-16T07:00:52;44.00;;;14.03;;
6755;SDS011;3415;51.148;7.014;2023-04-16T07:03:19;38.97;;;14.97;;
6755;SDS011;3415;51.148;7.014;2023-04-16T07:05:47;44.33;;;15.60;;
6755;SDS011;3415;51.148;7.014;2023-04-16T07:08:14;31.13;;;13.87;;
6755;SDS011;3415;51.148;7.014;2023-04-16T07:10:41;32.57;;;13.67;;
6755;SDS011;3415;51.148;7.014;2023-04-16T07:13:07;37.77;;;13.90;;
6755;SDS011;3415;51.148;7.014;2023-04-16T07:15:34;33.13;;;13.70;;
6755;SDS011;3415;51.148;7.014;2023-04-16T07:18:01;34.33;;;12.40;;
6755;SDS011;3415;51.148;7.014;2023-04-16T07:20:28;30.23;;;12.77;;
6755;SDS011;3415;51.148;7.014;2023-04-16T07:22:56;25.50;;;13.30;;
6755;SDS011;3415;51.148;7.014;2023-04-16T07:25:24;30.67;;;13.53;;
6755;SDS011;3415;51.148;7.014;2023-04-16T07:27:51;30.53;;;12.73;;
6755;SDS011;3415;51.148;7.014;2023-04-16T07:30:18;30.33;;;13.80;;
6755;SDS011;3415;51.148;7.014;2023-04-16T07:32:45;30.20;;;12.90;;
6755;SDS011;3415;51.148;7.014;2023-04-16T07:35:13;32.73;;;12.83;;
6755;SDS011;3415;51.148;7.014;2023-04-16T07:37:40;37.57;;;13.70;;
6755;SDS011;3415;51.148;7.014;2023-04-16T07:40:08;30.20;;;14.00;;
6755;SDS011;3415;51.148;7.014;2023-04-16T07:42:36;30.10;;;12.87;;
6755;SDS011;3415;51.148;7.014;2023-04-16T07:45:03;31.60;;;13.73;;
6755;SDS011;3415;51.148;7.014;2023-04-16T07:47:30;37.17;;;13.10;;
6755;SDS011;3415;51.148;7.014;2023-04-16T07:49:57;33.90;;;14.30;;
6755;SDS011;3415;51.148;7.014;2023-04-16T07:52:24;27.60;;;13.70;;
6755;SDS011;3415;51.148;7.014;2023-04-16T07:54:51;27.73;;;13.07;;
6755;SDS011;3415;51.148;7.014;2023-04-16T07:57:19;25.83;;;12.40;;
6755;SDS011;3415;51.148;7.014;2023-04-16T07:59:46;36.57;;;14.03;;
6755;SDS011;3415;51.148;7.014;2023-04-16T08:02:13;33.73;;;13.90;;
6755;SDS011;3415;51.148;7.014;2023-04-16T08:04:41;27.43;;;12.93;;
6755;SDS011;3415;51.148;7.014;2023-04-16T08:07:08;29.27;;;13.80;;
6755;SDS011;3415;51.148;7.014;2023-04-16T08:09:35;38.20;;;14.37;;
6755;SDS011;3415;51.148;7.014;2023-04-16T08:12:11;31.20;;;15.10;;
6755;SDS011;3415;51.148;7.014;2023-04-16T08:14:40;29.17;;;13.50;;
6755;SDS011;3415;51.148;7.014;2023-04-16T08:17:06;30.27;;;13.73;;
6755;SDS011;3415;51.148;7.014;2023-04-16T08:19:33;27.80;;;13.80;;
6755;SDS011;3415;51.148;7.014;2023-04-16T08:22:00;34.30;;;14.83;;
6755;SDS011;3415;51.148;7.014;2023-04-16T08:24:27;34.77;;;14.20;;
6755;SDS011;3415;51.148;7.014;2023-04-16T08:26:54;29.57;;;12.87;;
6755;SDS011;3415;51.148;7.014;2023-04-16T08:29:21;37.10;;;14.37;;
6755;SDS011;3415;51.148;7.014;2023-04-16T08:31:51;29.73;;;14.77;;
6755;SDS011;3415;51.148;7.014;2023-04-16T08:34:18;32.20;;;15.67;;
6755;SDS011;3415;51.148;7.014;2023-04-16T08:36:45;32.27;;;15.47;;
6755;SDS011;3415;51.148;7.014;2023-04-16T08:39:12;26.93;;;13.63;;
6755;SDS011;3415;51.148;7.014;2023-04-16T08:41:39;30.93;;;13.80;;
6755;SDS011;3415;51.148;7.014;2023-04-16T08:44:10;27.07;;;13.93;;
6755;SDS011;3415;51.148;7.014;2023-04-16T08:46:42;32.13;;;13.60;;
6755;SDS011;3415;51.148;7.014;2023-04-16T08:49:13;32.83;;;13.97;;
6755;SDS011;3415;51.148;7.014;2023-04-16T08:51:42;29.67;;;14.60;;
6755;SDS011;3415;51.148;7.014;2023-04-16T08:54:16;30.77;;;14.93;;
6755;SDS011;3415;51.148;7.014;2023-04-16T08:56:48;29.27;;;15.13;;
6755;SDS011;3415;51.148;7.014;2023-04-16T08:59:16;27.53;;;14.67;;
6755;SDS011;3415;51.148;7.014;2023-04-16T09:01:44;29.17;;;14.80;;
6755;SDS011;3415;51.148;7.014;2023-04-16T09:04:14;36.53;;;14.67;;
6755;SDS011;3415;51.148;7.014;2023-04-16T09:06:41;28.27;;;13.87;;
6755;SDS011;3415;51.148;7.014;2023-04-16T09:09:09;31.73;;;16.07;;
6755;SDS011;3415;51.148;7.014;2023-04-16T09:11:37;28.30;;;14.80;;
6755;SDS011;3415;51.148;7.014;2023-04-16T09:14:06;30.77;;;15.07;;
6755;SDS011;3415;51.148;7.014;2023-04-16T09:16:35;25.83;;;13.70;;
6755;SDS011;3415;51.148;7.014;2023-04-16T09:19:02;31.60;;;14.03;;
6755;SDS011;3415;51.148;7.014;2023-04-16T09:21:30;26.47;;;13.30;;
6755;SDS011;3415;51.148;7.014;2023-04-16T09:23:58;24.03;;;12.33;;
6755;SDS011;3415;51.148;7.014;2023-04-16T09:26:25;29.00;;;13.77;;
6755;SDS011;3415;51.148;7.014;2023-04-16T09:28:52;24.90;;;12.40;;
6755;SDS011;3415;51.148;7.014;2023-04-16T09:31:20;26.10;;;12.83;;
6755;SDS011;3415;51.148;7.014;2023-04-16T09:33:59;24.90;;;13.43;;
6755;SDS011;3415;51.148;7.014;2023-04-16T09:36:27;20.43;;;11.60;;
6755;SDS011;3415;51.148;7.014;2023-04-16T09:38:56;27.03;;;12.30;;
6755;SDS011;3415;51.148;7.014;2023-04-16T09:41:24;26.13;;;13.50;;
6755;SDS011;3415;51.148;7.014;2023-04-16T09:43:55;26.00;;;12.50;;
6755;SDS011;3415;51.148;7.014;2023-04-16T09:46:23;24.10;;;12.67;;
6755;SDS011;3415;51.148;7.014;2023-04-16T09:48:50;25.50;;;13.20;;
6755;SDS011;3415;51.148;7.014;2023-04-16T09:51:17;22.67;;;11.80;;
6755;SDS011;3415;51.148;7.014;2023-04-16T09:53:44;18.13;;;11.87;;
6755;SDS011;3415;51.148;7.014;2023-04-16T09:56:12;21.57;;;13.30;;
6755;SDS011;3415;51.148;7.014;2023-04-16T09:58:40;22.43;;;12.73;;
6755;SDS011;3415;51.148;7.014;2023-04-16T10:01:07;27.90;;;14.50;;
6755;SDS011;3415;51.148;7.014;2023-04-16T10:03:36;28.80;;;14.20;;
6755;SDS011;3415;51.148;7.014;2023-04-16T10:06:09;28.50;;;14.47;;
6755;SDS011;3415;51.148;7.014;2023-04-16T10:08:41;23.53;;;13.70;;
6755;SDS011;3415;51.148;7.014;2023-04-16T10:11:09;26.27;;;14.60;;
6755;SDS011;3415;51.148;7.014;2023-04-16T10:13:37;23.13;;;13.50;;
6755;SDS011;3415;51.148;7.014;2023-04-16T10:16:05;24.53;;;13.13;;
6755;SDS011;3415;51.148;7.014;2023-04-16T10:18:33;17.90;;;11.70;;
6755;SDS011;3415;51.148;7.014;2023-04-16T10:21:02;28.47;;;15.07;;
6755;SDS011;3415;51.148;7.014;2023-04-16T10:23:29;22.37;;;13.00;;
6755;SDS011;3415;51.148;7.014;2023-04-16T10:25:56;22.60;;;11.83;;
6755;SDS011;3415;51.148;7.014;2023-04-16T10:28:24;27.30;;;14.50;;
6755;SDS011;3415;51.148;7.014;2023-04-16T10:30:54;23.50;;;13.00;;
6755;SDS011;3415;51.148;7.014;2023-04-16T10:33:25;24.93;;;13.47;;
6755;SDS011;3415;51.148;7.014;2023-04-16T10:36:05;21.60;;;12.37;;
6755;SDS011;3415;51.148;7.014;2023-04-16T10:38:33;26.10;;;13.67;;
6755;SDS011;3415;51.148;7.014;2023-04-16T10:41:03;23.67;;;12.10;;
6755;SDS011;3415;51.148;7.014;2023-04-16T10:43:32;20.80;;;12.40;;
6755;SDS011;3415;51.148;7.014;2023-04-16T10:46:21;20.37;;;12.17;;
6755;SDS011;3415;51.148;7.014;2023-04-16T10:48:51;20.10;;;11.93;;
6755;SDS011;3415;51.148;7.014;2023-04-16T10:51:23;20.47;;;11.40;;
6755;SDS011;3415;51.148;7.014;2023-04-16T10:53:52;20.43;;;12.20;;
6755;SDS011;3415;51.148;7.014;2023-04-16T10:56:23;26.23;;;14.20;;
6755;SDS011;3415;51.148;7.014;2023-04-16T10:58:51;19.43;;;11.80;;
6755;SDS011;3415;51.148;7.014;2023-04-16T11:01:27;25.67;;;13.30;;
6755;SDS011;3415;51.148;7.014;2023-04-16T11:03:57;19.63;;;11.17;;
6755;SDS011;3415;51.148;7.014;2023-04-16T11:06:26;20.10;;;11.10;;
6755;SDS011;3415;51.148;7.014;2023-04-16T11:08:53;18.80;;;10.83;;
6755;SDS011;3415;51.148;7.014;2023-04-16T11:11:20;20.27;;;12.50;;
6755;SDS011;3415;51.148;7.014;2023-04-16T11:13:47;23.00;;;12.80;;
6755;SDS011;3415;51.148;7.014;2023-04-16T11:16:15;24.90;;;13.00;;
6755;SDS011;3415;51.148;7.014;2023-04-16T11:18:44;22.80;;;11.83;;
6755;SDS011;3415;51.148;7.014;2023-04-16T11:21:11;18.97;;;12.40;;
6755;SDS011;3415;51.148;7.014;2023-04-16T11:23:44;22.80;;;11.77;;
6755;SDS011;3415;51.148;7.014;2023-04-16T11:26:19;22.93;;;12.57;;
6755;SDS011;3415;51.148;7.014;2023-04-16T11:28:48;19.63;;;12.90;;
6755;SDS011;3415;51.148;7.014;2023-04-16T11:31:15;24.20;;;12.27;;
6755;SDS011;3415;51.148;7.014;2023-04-16T11:33:43;18.30;;;10.70;;
6755;SDS011;3415;51.148;7.014;2023-04-16T11:36:11;17.90;;;10.30;;
6755;SDS011;3415;51.148;7.014;2023-04-16T11:38:38;17.13;;;10.03;;
6755;SDS011;3415;51.148;7.014;2023-04-16T11:41:07;15.97;;;10.13;;
6755;SDS011;3415;51.148;7.014;2023-04-16T11:43:34;19.83;;;9.70;;
6755;SDS011;3415;51.148;7.014;2023-04-16T11:46:01;19.07;;;11.13;;
6755;SDS011;3415;51.148;7.014;2023-04-16T11:48:47;16.43;;;8.93;;
6755;SDS011;3415;51.148;7.014;2023-04-16T11:51:15;18.10;;;10.37;;
6755;SDS011;3415;51.148;7.014;2023-04-16T11:53:46;18.07;;;9.33;;
6755;SDS011;3415;51.148;7.014;2023-04-16T11:56:14;13.60;;;8.90;;
6755;SDS011;3415;51.148;7.014;2023-04-16T11:58:41;19.27;;;9.73;;
6755;SDS011;3415;51.148;7.014;2023-04-16T12:01:08;14.47;;;8.80;;
6755;SDS011;3415;51.148;7.014;2023-04-16T12:03:36;16.90;;;9.47;;
6755;SDS011;3415;51.148;7.014;2023-04-16T12:06:07;14.73;;;8.93;;
6755;SDS011;3415;51.148;7.014;2023-04-16T12:08:35;16.53;;;9.87;;
6755;SDS011;3415;51.148;7.014;2023-04-16T12:11:01;15.73;;;9.20;;
6755;SDS011;3415;51.148;7.014;2023-04-16T12:13:28;15.03;;;9.00;;
6755;SDS011;3415;51.148;7.014;2023-04-16T12:15:55;17.37;;;9.33;;
6755;SDS011;3415;51.148;7.014;2023-04-16T12:18:23;14.63;;;7.40;;
6755;SDS011;3415;51.148;7.014;2023-04-16T12:20:51;14.10;;;8.33;;
6755;SDS011;3415;51.148;7.014;2023-04-16T12:23:22;14.50;;;7.90;;
6755;SDS011;3415;51.148;7.014;2023-04-16T12:25:50;12.20;;;7.70;;
6755;SDS011;3415;51.148;7.014;2023-04-16T12:28:25;14.10;;;8.43;;
6755;SDS011;3415;51.148;7.014;2023-04-16T12:30:53;15.37;;;8.77;;
6755;SDS011;3415;51.148;7.014;2023-04-16T12:33:21;13.47;;;8.30;;
6755;SDS011;3415;51.148;7.014;2023-04-16T12:35:48;14.30;;;8.70;;
6755;SDS011;3415;51.148;7.014;2023-04-16T12:38:15;17.17;;;10.13;;
6755;SDS011;3415;51.148;7.014;2023-04-16T12:40:43;15.80;;;9.80;;
6755;SDS011;3415;51.148;7.014;2023-04-16T12:43:10;17.90;;;10.57;;
6755;SDS011;3415;51.148;7.014;2023-04-16T12:45:37;18.27;;;10.83;;
6755;SDS011;3415;51.148;7.014;2023-04-16T12:48:05;14.80;;;8.90;;
6755;SDS011;3415;51.148;7.014;2023-04-16T12:50:32;18.10;;;10.20;;
6755;SDS011;3415;51.148;7.014;2023-04-16T12:52:59;15.40;;;9.80;;
6755;SDS011;3415;51.148;7.014;2023-04-16T12:55:26;17.80;;;10.23;;
6755;SDS011;3415;51.148;7.014;2023-04-16T12:57:54;14.50;;;8.50;;
6755;SDS011;3415;51.148;7.014;2023-04-16T13:00:21;14.90;;;9.80;;
6755;SDS011;3415;51.148;7.014;2023-04-16T13:02:48;15.10;;;8.97;;
6755;SDS011;3415;51.148;7.014;2023-04-16T13:05:15;16.50;;;9.77;;
6755;SDS011;3415;51.148;7.014;2023-04-16T13:07:43;16.60;;;8.73;;
6755;SDS011;3415;51.148;7.014;2023-04-16T13:10:10;13.70;;;8.90;;
6755;SDS011;3415;51.148;7.014;2023-04-16T13:12:37;16.60;;;8.63;;
6755;SDS011;3415;51.148;7.014;2023-04-16T13:15:06;15.20;;;8.50;;
6755;SDS011;3415;51.148;7.014;2023-04-16T13:17:34;14.33;;;8.17;;
6755;SDS011;3415;51.148;7.014;2023-04-16T13:20:01;16.33;;;9.30;;
6755;SDS011;3415;51.148;7.014;2023-04-16T13:22:28;12.63;;;7.60;;
6755;SDS011;3415;51.148;7.014;2023-04-16T13:24:55;20.10;;;9.60;;
6755;SDS011;3415;51.148;7.014;2023-04-16T13:27:22;13.00;;;7.93;;
6755;SDS011;3415;51.148;7.014;2023-04-16T13:29:48;15.37;;;8.67;;
6755;SDS011;3415;51.148;7.014;2023-04-16T13:32:17;14.27;;;9.13;;
6755;SDS011;3415;51.148;7.014;2023-04-16T13:34:44;16.57;;;9.57;;
6755;SDS011;3415;51.148;7.014;2023-04-16T13:37:11;13.20;;;9.03;;
6755;SDS011;3415;51.148;7.014;2023-04-16T13:39:38;14.57;;;9.13;;
6755;SDS011;3415;51.148;7.014;2023-04-16T13:42:05;15.20;;;9.67;;
6755;SDS011;3415;51.148;7.014;2023-04-16T13:44:31;16.93;;;9.83;;
6755;SDS011;3415;51.148;7.014;2023-04-16T13:46:58;22.87;;;11.63;;
6755;SDS011;3415;51.148;7.014;2023-04-16T13:49:26;15.63;;;9.83;;
6755;SDS011;3415;51.148;7.014;2023-04-16T13:51:53;16.80;;;10.50;;
6755;SDS011;3415;51.148;7.014;2023-04-16T13:54:20;15.80;;;9.47;;
6755;SDS011;3415;51.148;7.014;2023-04-16T13:56:48;14.53;;;8.20;;
6755;SDS011;3415;51.148;7.014;2023-04-16T13:59:15;14.20;;;8.97;;
6755;SDS011;3415;51.148;7.014;2023-04-16T14:01:42;14.90;;;9.53;;
6755;SDS011;3415;51.148;7.014;2023-04-16T14:04:09;16.57;;;9.10;;
6755;SDS011;3415;51.148;7.014;2023-04-16T14:06:37;14.53;;;9.70;;
6755;SDS011;3415;51.148;7.014;2023-04-16T14:09:04;14.10;;;8.80;;
6755;SDS011;3415;51.148;7.014;2023-04-16T14:11:31;13.73;;;8.57;;
6755;SDS011;3415;51.148;7.014;2023-04-16T14:13:58;15.57;;;9.03;;
6755;SDS011;3415;51.148;7.014;2023-04-16T14:16:24;15.53;;;8.60;;
6755;SDS011;3415;51.148;7.014;2023-04-16T14:18:51;13.83;;;7.97;;
6755;SDS011;3415;51.148;7.014;2023-04-16T14:21:18;18.73;;;8.97;;
6755;SDS011;3415;51.148;7.014;2023-04-16T14:23:46;14.13;;;8.23;;
6755;SDS011;3415;51.148;7.014;2023-04-16T14:26:13;12.03;;;8.07;;
6755;SDS011;3415;51.148;7.014;2023-04-16T14:28:40;14.57;;;8.80;;
6755;SDS011;3415;51.148;7.014;2023-04-16T14:31:07;14.27;;;8.77;;
6755;SDS011;3415;51.148;7.014;2023-04-16T14:33:34;12.67;;;8.53;;
6755;SDS011;3415;51.148;7.014;2023-04-16T14:36:01;14.30;;;8.77;;
6755;SDS011;3415;51.148;7.014;2023-04-16T14:38:28;14.20;;;8.43;;
6755;SDS011;3415;51.148;7.014;2023-04-16T14:40:56;13.70;;;8.13;;
6755;SDS011;3415;51.148;7.014;2023-04-16T14:43:24;13.97;;;9.40;;
6755;SDS011;3415;51.148;7.014;2023-04-16T14:45:51;16.27;;;8.87;;
6755;SDS011;3415;51.148;7.014;2023-04-16T14:48:18;16.57;;;10.17;;
6755;SDS011;3415;51.148;7.014;2023-04-16T14:50:45;21.93;;;9.67;;
6755;SDS011;3415;51.148;7.014;2023-04-16T14:53:11;15.50;;;9.40;;